Terminal Aerodrome Forecast
Issued by NWS

Home | Current Version | Previous Version | Text Only | Print | Product List | Glossary On
Versions: 1 2 3 4 5 6 7 8 9 10 11 12
000
FTUS44 KSJT 192340
TAFBBD
TAF
KBBD 192340Z 2000/2024 16008KT P6SM FEW250
     FM200900 20013G22KT P6SM FEW250
      AMD NOT SKED=

USA.gov is the U.S. government's official web portal to all federal, state and local government web resources and services.